Aurelia, Iowa
Current Conditions -  °F | °C
As of 4:15 PM on Friday 24 Oct 2014 (Local Time) from KCKP Reporting Station
Clear Clear  
Wind Chill: 72°   Ceiling: Unl
Heat Index: 72°   Visibility: 10mi
Dew Point: 51°   Wind: 5mph
Humidity: 49%   Direction: 280°W
Pressure: 29.89"   Gusts: NA
Location:  42.71°N, 95.44°W
Report Text: KCKP 242115Z AUTO 28004KT 10SM CLR 22/11 A2989 RMK AO2 T02200108
Loading
Personal Weather Stations






























Interactive Weather Map New forecast layout! Learn more

10-Day Weather Forecast

Advertisements
Track Severe Weather on mobile